BER2511 EDDL-LQMO
Flight info
| Callsign | BER2511 |
|---|---|
| Flight time | 1h 45m |
| Altitude | 35000 |
| Route | DODEN7Z/05R DODEN Y853 BOMBI T104 XERUM M867 RADIZ DCT EPODO DCT RASTU DCT VRANA |
| Aircraft | B738/M-SDE2E3FGHIRWXY/LB1 |
Departure
| Time | 2026-05-07 18:54 |
|---|---|
| Airport | Düsseldorf Airport (EDDL) |
Arrival
| Time | 2026-05-07 20:39 |
|---|---|
| Airport | Mostar International Airport (LQMO) |
| Time | Latitude | Longitude | Altitude | Speed | Heading |
|---|---|---|---|---|---|
| 2026-05-07 18:26 | 51.27903 | 6.76248 | 125 ft | 0 kts | 45° |
| 2026-05-07 18:44 | 51.27891 | 6.76230 | 125 ft | 4 kts | 41° |
| 2026-05-07 18:44 | 51.27869 | 6.76204 | 124 ft | 4 kts | 27° |
| 2026-05-07 18:45 | 51.27847 | 6.76194 | 126 ft | 4 kts | 338° |
| 2026-05-07 18:45 | 51.27840 | 6.76204 | 124 ft | 1 kts | 272° |
| 2026-05-07 18:45 | 51.27840 | 6.76209 | 126 ft | 0 kts | 272° |
| 2026-05-07 18:48 | 51.27840 | 6.76194 | 124 ft | 5 kts | 272° |
| 2026-05-07 18:48 | 51.27842 | 6.76116 | 129 ft | 8 kts | 271° |
| 2026-05-07 18:48 | 51.27843 | 6.76014 | 129 ft | 10 kts | 271° |
| 2026-05-07 18:49 | 51.27844 | 6.75909 | 129 ft | 9 kts | 271° |
| 2026-05-07 18:49 | 51.27850 | 6.75817 | 129 ft | 0 kts | 285° |
| 2026-05-07 18:50 | 51.27850 | 6.75815 | 129 ft | 1 kts | 285° |
| 2026-05-07 18:50 | 51.27856 | 6.75778 | 128 ft | 5 kts | 285° |
| 2026-05-07 18:50 | 51.27862 | 6.75678 | 126 ft | 9 kts | 275° |
| 2026-05-07 18:50 | 51.27877 | 6.75624 | 126 ft | 5 kts | 308° |
| 2026-05-07 18:51 | 51.27901 | 6.75585 | 126 ft | 5 kts | 287° |
| 2026-05-07 18:51 | 51.27867 | 6.75471 | 121 ft | 15 kts | 233° |
| 2026-05-07 18:51 | 51.27843 | 6.75369 | 125 ft | 6 kts | 290° |
| 2026-05-07 18:51 | 51.27877 | 6.75321 | 122 ft | 8 kts | 331° |
| 2026-05-07 18:52 | 51.27942 | 6.75270 | 121 ft | 12 kts | 336° |
| 2026-05-07 18:52 | 51.28013 | 6.75310 | 121 ft | 12 kts | 51° |
| 2026-05-07 18:52 | 51.28048 | 6.75383 | 121 ft | 4 kts | 53° |
| 2026-05-07 18:52 | 51.28066 | 6.75420 | 123 ft | 4 kts | 53° |
| 2026-05-07 18:53 | 51.28083 | 6.75457 | 126 ft | 4 kts | 52° |
| 2026-05-07 18:53 | 51.28102 | 6.75496 | 124 ft | 8 kts | 52° |
| 2026-05-07 18:53 | 51.28257 | 6.75821 | 127 ft | 72 kts | 53° |
| 2026-05-07 18:53 | 51.28707 | 6.76762 | 127 ft | 141 kts | 52° |
| 2026-05-07 18:54 | 51.29412 | 6.78221 | 590 ft | 176 kts | 53° |
| 2026-05-07 18:54 | 51.30134 | 6.79756 | 1844 ft | 166 kts | 53° |
| 2026-05-07 18:54 | 51.30857 | 6.81290 | 2719 ft | 185 kts | 53° |
| 2026-05-07 18:54 | 51.31673 | 6.83044 | 3011 ft | 210 kts | 53° |
| 2026-05-07 18:55 | 51.32597 | 6.85027 | 3292 ft | 229 kts | 53° |
| 2026-05-07 18:55 | 51.33569 | 6.87110 | 3834 ft | 236 kts | 54° |
| 2026-05-07 18:55 | 51.34536 | 6.89273 | 4515 ft | 238 kts | 54° |
| 2026-05-07 18:55 | 51.35242 | 6.91669 | 4962 ft | 252 kts | 79° |
| 2026-05-07 18:56 | 51.35175 | 6.94620 | 5022 ft | 279 kts | 97° |
| 2026-05-07 18:56 | 51.34853 | 6.97728 | 4996 ft | 277 kts | 98° |
| 2026-05-07 18:56 | 51.34532 | 7.00664 | 4970 ft | 258 kts | 98° |
| 2026-05-07 18:56 | 51.34236 | 7.03422 | 4986 ft | 245 kts | 98° |
| 2026-05-07 18:57 | 51.33959 | 7.06079 | 4979 ft | 241 kts | 98° |
| 2026-05-07 18:57 | 51.33686 | 7.08756 | 5112 ft | 254 kts | 98° |
| 2026-05-07 18:57 | 51.33397 | 7.11590 | 5724 ft | 259 kts | 98° |
| 2026-05-07 18:57 | 51.33109 | 7.14426 | 6436 ft | 258 kts | 98° |
| 2026-05-07 18:58 | 51.32736 | 7.17201 | 7181 ft | 258 kts | 113° |
| 2026-05-07 18:58 | 51.31675 | 7.19537 | 7806 ft | 260 kts | 134° |
| 2026-05-07 18:58 | 51.30394 | 7.21570 | 8432 ft | 263 kts | 136° |
| 2026-05-07 18:58 | 51.29068 | 7.23614 | 9046 ft | 266 kts | 136° |
| 2026-05-07 18:59 | 51.27720 | 7.25684 | 9668 ft | 270 kts | 136° |
| 2026-05-07 18:59 | 51.26330 | 7.27822 | 10032 ft | 288 kts | 136° |
| 2026-05-07 18:59 | 51.24852 | 7.30104 | 10394 ft | 306 kts | 136° |
| 2026-05-07 18:59 | 51.23271 | 7.32549 | 10579 ft | 329 kts | 136° |
| 2026-05-07 19:00 | 51.21567 | 7.35190 | 10820 ft | 349 kts | 136° |
| 2026-05-07 19:00 | 51.19798 | 7.37936 | 11395 ft | 357 kts | 136° |
| 2026-05-07 19:00 | 51.18006 | 7.40718 | 12133 ft | 360 kts | 136° |
| 2026-05-07 19:00 | 51.16224 | 7.43482 | 12877 ft | 363 kts | 136° |
| 2026-05-07 19:01 | 51.14397 | 7.46316 | 13589 ft | 367 kts | 136° |
| 2026-05-07 19:01 | 51.12559 | 7.49162 | 14236 ft | 371 kts | 137° |
| 2026-05-07 19:01 | 51.10714 | 7.52015 | 14864 ft | 374 kts | 137° |
| 2026-05-07 19:01 | 51.08834 | 7.54921 | 15495 ft | 377 kts | 137° |
| 2026-05-07 19:02 | 51.06934 | 7.57852 | 16125 ft | 381 kts | 137° |
| 2026-05-07 19:02 | 51.05016 | 7.60808 | 16734 ft | 385 kts | 137° |
| 2026-05-07 19:02 | 51.03078 | 7.63793 | 17325 ft | 389 kts | 137° |
| 2026-05-07 19:02 | 51.01143 | 7.66770 | 17947 ft | 392 kts | 137° |
| 2026-05-07 19:03 | 50.99159 | 7.69815 | 18538 ft | 395 kts | 137° |
| 2026-05-07 19:03 | 50.97188 | 7.72810 | 19064 ft | 398 kts | 139° |
| 2026-05-07 19:03 | 50.94972 | 7.75489 | 19588 ft | 399 kts | 149° |
| 2026-05-07 19:03 | 50.92599 | 7.77830 | 20127 ft | 401 kts | 150° |
| 2026-05-07 19:04 | 50.90208 | 7.80127 | 20650 ft | 405 kts | 150° |
| 2026-05-07 19:04 | 50.87798 | 7.82437 | 21151 ft | 408 kts | 150° |
| 2026-05-07 19:04 | 50.85379 | 7.84770 | 21655 ft | 410 kts | 150° |
| 2026-05-07 19:04 | 50.82923 | 7.87155 | 22157 ft | 413 kts | 150° |
| 2026-05-07 19:05 | 50.80459 | 7.89559 | 22644 ft | 416 kts | 150° |
| 2026-05-07 19:05 | 50.77982 | 7.91980 | 23129 ft | 419 kts | 150° |
| 2026-05-07 19:05 | 50.75522 | 7.94385 | 23595 ft | 422 kts | 150° |
| 2026-05-07 19:05 | 50.73008 | 7.96840 | 23988 ft | 425 kts | 150° |
| 2026-05-07 19:06 | 50.70476 | 7.99310 | 24377 ft | 427 kts | 150° |
| 2026-05-07 19:06 | 50.65403 | 8.04249 | 25119 ft | 432 kts | 150° |
| 2026-05-07 19:06 | 50.62818 | 8.06759 | 25485 ft | 435 kts | 150° |
| 2026-05-07 19:07 | 50.60266 | 8.09263 | 25844 ft | 438 kts | 148° |
| 2026-05-07 19:07 | 50.57816 | 8.12171 | 26190 ft | 441 kts | 142° |
| 2026-05-07 19:07 | 50.55459 | 8.15265 | 26540 ft | 444 kts | 141° |
| 2026-05-07 19:07 | 50.53119 | 8.18410 | 26876 ft | 446 kts | 140° |
| 2026-05-07 19:08 | 50.50737 | 8.21612 | 27202 ft | 449 kts | 141° |
| 2026-05-07 19:08 | 50.48364 | 8.24778 | 27531 ft | 451 kts | 141° |
| 2026-05-07 19:08 | 50.45946 | 8.27976 | 27836 ft | 453 kts | 141° |
| 2026-05-07 19:08 | 50.43547 | 8.31124 | 28151 ft | 456 kts | 141° |
| 2026-05-07 19:09 | 50.41095 | 8.34328 | 28465 ft | 458 kts | 141° |
| 2026-05-07 19:09 | 50.38625 | 8.37543 | 28766 ft | 460 kts | 141° |
| 2026-05-07 19:09 | 50.36137 | 8.40777 | 29050 ft | 462 kts | 141° |
| 2026-05-07 19:09 | 50.33683 | 8.43961 | 29327 ft | 465 kts | 141° |
| 2026-05-07 19:10 | 50.31174 | 8.47213 | 29630 ft | 466 kts | 141° |
| 2026-05-07 19:10 | 50.29087 | 8.49915 | 29967 ft | 465 kts | 141° |
| 2026-05-07 19:10 | 50.26958 | 8.52670 | 30313 ft | 464 kts | 141° |
| 2026-05-07 19:10 | 50.24493 | 8.55855 | 30644 ft | 463 kts | 141° |
| 2026-05-07 19:11 | 50.22001 | 8.59070 | 30934 ft | 464 kts | 141° |
| 2026-05-07 19:11 | 50.19493 | 8.62302 | 31090 ft | 467 kts | 141° |
| 2026-05-07 19:11 | 50.14462 | 8.68772 | 31068 ft | 468 kts | 141° |
| 2026-05-07 19:12 | 50.09468 | 8.75178 | 31075 ft | 462 kts | 141° |
| 2026-05-07 19:12 | 50.04521 | 8.81533 | 31074 ft | 463 kts | 140° |
| 2026-05-07 19:13 | 49.99717 | 8.88256 | 31082 ft | 464 kts | 138° |
| 2026-05-07 19:13 | 49.94949 | 8.95110 | 31063 ft | 465 kts | 138° |
| 2026-05-07 19:14 | 49.90192 | 9.01859 | 31061 ft | 466 kts | 138° |
| 2026-05-07 19:14 | 49.85380 | 9.08611 | 31067 ft | 466 kts | 139° |
| 2026-05-07 19:15 | 49.80524 | 9.15395 | 31295 ft | 470 kts | 139° |
| 2026-05-07 19:15 | 49.78914 | 9.17641 | 31529 ft | 469 kts | 139° |
| 2026-05-07 19:15 | 49.75697 | 9.22123 | 32050 ft | 466 kts | 139° |
| 2026-05-07 19:16 | 49.73311 | 9.25443 | 32431 ft | 464 kts | 139° |
| 2026-05-07 19:16 | 49.70894 | 9.28801 | 32759 ft | 463 kts | 139° |
| 2026-05-07 19:16 | 49.69314 | 9.30995 | 32934 ft | 463 kts | 139° |
| 2026-05-07 19:16 | 49.66898 | 9.34345 | 33171 ft | 464 kts | 139° |
| 2026-05-07 19:17 | 49.64523 | 9.37633 | 33467 ft | 463 kts | 139° |
| 2026-05-07 19:17 | 49.61352 | 9.42090 | 33876 ft | 463 kts | 136° |
| 2026-05-07 19:17 | 49.59876 | 9.44506 | 34038 ft | 463 kts | 133° |
| 2026-05-07 19:17 | 49.57734 | 9.48276 | 34247 ft | 464 kts | 131° |
| 2026-05-07 19:18 | 49.55655 | 9.52044 | 34456 ft | 464 kts | 131° |
| 2026-05-07 19:18 | 49.53548 | 9.55860 | 34653 ft | 464 kts | 131° |
| 2026-05-07 19:18 | 49.51472 | 9.59581 | 34855 ft | 464 kts | 132° |
| 2026-05-07 19:18 | 49.49338 | 9.63363 | 35047 ft | 464 kts | 133° |
| 2026-05-07 19:19 | 49.45073 | 9.70845 | 35051 ft | 467 kts | 133° |
| 2026-05-07 19:19 | 49.40801 | 9.78310 | 35071 ft | 466 kts | 133° |
| 2026-05-07 19:20 | 49.38641 | 9.82075 | 35218 ft | 467 kts | 133° |
| 2026-05-07 19:20 | 49.36467 | 9.85842 | 35495 ft | 465 kts | 133° |
| 2026-05-07 19:20 | 49.34341 | 9.89492 | 35747 ft | 464 kts | 134° |
| 2026-05-07 19:20 | 49.32180 | 9.93185 | 35909 ft | 465 kts | 134° |
| 2026-05-07 19:21 | 49.30037 | 9.96843 | 36043 ft | 466 kts | 134° |
| 2026-05-07 19:21 | 49.27862 | 10.00556 | 36239 ft | 466 kts | 134° |
| 2026-05-07 19:21 | 49.25694 | 10.04257 | 36436 ft | 465 kts | 134° |
| 2026-05-07 19:21 | 49.23531 | 10.07947 | 36621 ft | 465 kts | 134° |
| 2026-05-07 19:22 | 49.21392 | 10.11590 | 36781 ft | 465 kts | 134° |
| 2026-05-07 19:22 | 49.19219 | 10.15289 | 36955 ft | 465 kts | 134° |
| 2026-05-07 19:22 | 49.17072 | 10.18989 | 37068 ft | 466 kts | 134° |
| 2026-05-07 19:22 | 49.14907 | 10.22737 | 37078 ft | 468 kts | 134° |
| 2026-05-07 19:23 | 49.10505 | 10.30056 | 37086 ft | 466 kts | 136° |
| 2026-05-07 19:23 | 49.06032 | 10.37150 | 37087 ft | 464 kts | 136° |
| 2026-05-07 19:24 | 49.01582 | 10.44273 | 37105 ft | 467 kts | 136° |
| 2026-05-07 19:24 | 48.97045 | 10.51459 | 37115 ft | 473 kts | 136° |
| 2026-05-07 19:25 | 48.92429 | 10.58703 | 37112 ft | 478 kts | 136° |
| 2026-05-07 19:25 | 48.87877 | 10.65995 | 37090 ft | 469 kts | 136° |
| 2026-05-07 19:26 | 48.83422 | 10.73113 | 37092 ft | 465 kts | 136° |
| 2026-05-07 19:26 | 48.78969 | 10.80153 | 37073 ft | 462 kts | 136° |
| 2026-05-07 19:27 | 48.74496 | 10.87121 | 37068 ft | 461 kts | 136° |
| 2026-05-07 19:27 | 48.70021 | 10.94085 | 37064 ft | 460 kts | 137° |
| 2026-05-07 19:28 | 48.65561 | 11.01018 | 37063 ft | 461 kts | 137° |
| 2026-05-07 19:28 | 48.61081 | 11.07973 | 37056 ft | 463 kts | 137° |
| 2026-05-07 19:29 | 48.56618 | 11.14984 | 37053 ft | 465 kts | 134° |
| 2026-05-07 19:29 | 48.52328 | 11.22431 | 37062 ft | 468 kts | 133° |
| 2026-05-07 19:30 | 48.48135 | 11.29862 | 37059 ft | 470 kts | 133° |
| 2026-05-07 19:30 | 48.43831 | 11.37386 | 37068 ft | 472 kts | 133° |
| 2026-05-07 19:31 | 48.39536 | 11.44820 | 37073 ft | 473 kts | 134° |
| 2026-05-07 19:31 | 48.35221 | 11.52262 | 37069 ft | 473 kts | 134° |
| 2026-05-07 19:32 | 48.30884 | 11.59729 | 37073 ft | 473 kts | 134° |
| 2026-05-07 19:32 | 48.26555 | 11.67160 | 37070 ft | 473 kts | 134° |
| 2026-05-07 19:33 | 48.22220 | 11.74543 | 37072 ft | 472 kts | 134° |
| 2026-05-07 19:33 | 48.17883 | 11.81873 | 37067 ft | 470 kts | 136° |
| 2026-05-07 19:34 | 48.13139 | 11.88559 | 37075 ft | 466 kts | 141° |
| 2026-05-07 19:34 | 48.08295 | 11.95081 | 37060 ft | 466 kts | 141° |
| 2026-05-07 19:35 | 48.03531 | 12.01623 | 37057 ft | 465 kts | 140° |
| 2026-05-07 19:35 | 47.98783 | 12.08144 | 37058 ft | 465 kts | 141° |
| 2026-05-07 19:36 | 47.94009 | 12.14667 | 37059 ft | 464 kts | 141° |
| 2026-05-07 19:36 | 47.89149 | 12.20994 | 37064 ft | 463 kts | 143° |
| 2026-05-07 19:37 | 47.84178 | 12.27141 | 37065 ft | 464 kts | 144° |
| 2026-05-07 19:37 | 47.79250 | 12.33276 | 37062 ft | 465 kts | 143° |
| 2026-05-07 19:38 | 47.74307 | 12.39465 | 37058 ft | 466 kts | 143° |
| 2026-05-07 19:38 | 47.69335 | 12.45648 | 37066 ft | 466 kts | 144° |
| 2026-05-07 19:39 | 47.64338 | 12.51770 | 37060 ft | 466 kts | 144° |
| 2026-05-07 19:39 | 47.59293 | 12.57767 | 37079 ft | 466 kts | 147° |
| 2026-05-07 19:40 | 47.54044 | 12.63528 | 37061 ft | 466 kts | 148° |
| 2026-05-07 19:40 | 47.48857 | 12.69169 | 37063 ft | 466 kts | 147° |
| 2026-05-07 19:41 | 47.43650 | 12.74876 | 37059 ft | 467 kts | 147° |
| 2026-05-07 19:41 | 47.38452 | 12.80595 | 37060 ft | 466 kts | 147° |
| 2026-05-07 19:42 | 47.33249 | 12.86314 | 37067 ft | 467 kts | 147° |
| 2026-05-07 19:42 | 47.28042 | 12.92022 | 37076 ft | 467 kts | 148° |
| 2026-05-07 19:43 | 47.22824 | 12.97725 | 37047 ft | 467 kts | 148° |
| 2026-05-07 19:43 | 47.17634 | 13.03384 | 37068 ft | 467 kts | 148° |
| 2026-05-07 19:44 | 47.12395 | 13.09080 | 37054 ft | 467 kts | 148° |
| 2026-05-07 19:44 | 47.07188 | 13.14728 | 37062 ft | 467 kts | 148° |
| 2026-05-07 19:45 | 47.01973 | 13.20371 | 37049 ft | 467 kts | 148° |
| 2026-05-07 19:45 | 46.96720 | 13.26041 | 37051 ft | 467 kts | 148° |
| 2026-05-07 19:46 | 46.91517 | 13.31644 | 37050 ft | 466 kts | 148° |
| 2026-05-07 19:46 | 46.86256 | 13.37292 | 37053 ft | 466 kts | 148° |
| 2026-05-07 19:47 | 46.81053 | 13.42868 | 37037 ft | 466 kts | 149° |
| 2026-05-07 19:47 | 46.75836 | 13.48445 | 37057 ft | 466 kts | 149° |
| 2026-05-07 19:48 | 46.70566 | 13.54062 | 37033 ft | 467 kts | 149° |
| 2026-05-07 19:48 | 46.65348 | 13.59611 | 37035 ft | 466 kts | 149° |
| 2026-05-07 19:49 | 46.60111 | 13.65168 | 37041 ft | 466 kts | 149° |
| 2026-05-07 19:49 | 46.54860 | 13.70724 | 37039 ft | 466 kts | 149° |
| 2026-05-07 19:50 | 46.49642 | 13.76234 | 37036 ft | 465 kts | 149° |
| 2026-05-07 19:50 | 46.44410 | 13.81744 | 37065 ft | 465 kts | 150° |
| 2026-05-07 19:51 | 46.39146 | 13.87274 | 37036 ft | 466 kts | 150° |
| 2026-05-07 19:51 | 46.33909 | 13.92763 | 37022 ft | 466 kts | 150° |
| 2026-05-07 19:52 | 46.28677 | 13.98236 | 37035 ft | 466 kts | 150° |
| 2026-05-07 19:52 | 46.23430 | 14.03711 | 37028 ft | 466 kts | 150° |
| 2026-05-07 19:53 | 46.18232 | 14.09363 | 37020 ft | 470 kts | 143° |
| 2026-05-07 19:53 | 46.13478 | 14.15813 | 37024 ft | 472 kts | 141° |
| 2026-05-07 19:54 | 46.08751 | 14.22432 | 37023 ft | 472 kts | 141° |
| 2026-05-07 19:54 | 46.04038 | 14.28942 | 37018 ft | 471 kts | 142° |
| 2026-05-07 19:55 | 45.99263 | 14.35451 | 37019 ft | 470 kts | 142° |
| 2026-05-07 19:55 | 45.94522 | 14.41874 | 37015 ft | 470 kts | 142° |
| 2026-05-07 19:56 | 45.89786 | 14.48275 | 37023 ft | 469 kts | 142° |
| 2026-05-07 19:56 | 45.85011 | 14.54715 | 37015 ft | 469 kts | 142° |
| 2026-05-07 19:57 | 45.80275 | 14.61087 | 37023 ft | 469 kts | 142° |
| 2026-05-07 19:57 | 45.75495 | 14.67504 | 37038 ft | 469 kts | 142° |
| 2026-05-07 19:58 | 45.70744 | 14.73867 | 37028 ft | 469 kts | 142° |
| 2026-05-07 19:58 | 45.65986 | 14.80224 | 37043 ft | 470 kts | 142° |
| 2026-05-07 19:59 | 45.61196 | 14.86605 | 37030 ft | 470 kts | 142° |
| 2026-05-07 19:59 | 45.56428 | 14.92946 | 37033 ft | 471 kts | 143° |
| 2026-05-07 20:00 | 45.51628 | 14.99310 | 37040 ft | 471 kts | 143° |
| 2026-05-07 20:00 | 45.46795 | 15.05704 | 37035 ft | 472 kts | 143° |
| 2026-05-07 20:01 | 45.41970 | 15.12072 | 37033 ft | 472 kts | 143° |
| 2026-05-07 20:01 | 45.37161 | 15.18404 | 37024 ft | 472 kts | 143° |
| 2026-05-07 20:02 | 45.32352 | 15.24720 | 37032 ft | 472 kts | 143° |
| 2026-05-07 20:02 | 45.27504 | 15.31071 | 37032 ft | 473 kts | 143° |
| 2026-05-07 20:03 | 45.22674 | 15.37383 | 37037 ft | 473 kts | 143° |
| 2026-05-07 20:03 | 45.17835 | 15.43693 | 37026 ft | 473 kts | 143° |
| 2026-05-07 20:04 | 45.13790 | 15.48955 | 37034 ft | 473 kts | 143° |
| 2026-05-07 20:04 | 45.08926 | 15.55270 | 37029 ft | 473 kts | 143° |
| 2026-05-07 20:05 | 45.04097 | 15.61524 | 37030 ft | 473 kts | 143° |
| 2026-05-07 20:05 | 44.99228 | 15.67817 | 37029 ft | 472 kts | 143° |
| 2026-05-07 20:06 | 44.94399 | 15.74051 | 37029 ft | 473 kts | 142° |
| 2026-05-07 20:06 | 44.89854 | 15.80795 | 37039 ft | 476 kts | 137° |
| 2026-05-07 20:07 | 44.85432 | 15.87799 | 37041 ft | 477 kts | 137° |
| 2026-05-07 20:07 | 44.81032 | 15.94734 | 37045 ft | 477 kts | 137° |
| 2026-05-07 20:08 | 44.76562 | 16.01684 | 37051 ft | 477 kts | 138° |
| 2026-05-07 20:08 | 44.72094 | 16.08579 | 37042 ft | 477 kts | 138° |
| 2026-05-07 20:09 | 44.67642 | 16.15430 | 37053 ft | 475 kts | 138° |
| 2026-05-07 20:10 | 44.61018 | 16.25601 | 37054 ft | 468 kts | 138° |
| 2026-05-07 20:10 | 44.58810 | 16.28978 | 36619 ft | 472 kts | 138° |
| 2026-05-07 20:10 | 44.56584 | 16.32379 | 36150 ft | 470 kts | 138° |
| 2026-05-07 20:10 | 44.54369 | 16.35762 | 35567 ft | 470 kts | 139° |
| 2026-05-07 20:11 | 44.52177 | 16.39106 | 34998 ft | 471 kts | 139° |
| 2026-05-07 20:11 | 44.49945 | 16.42505 | 34399 ft | 472 kts | 139° |
| 2026-05-07 20:11 | 44.47706 | 16.45912 | 33716 ft | 475 kts | 139° |
| 2026-05-07 20:11 | 44.45463 | 16.49318 | 33024 ft | 476 kts | 139° |
| 2026-05-07 20:12 | 44.43242 | 16.52691 | 32373 ft | 476 kts | 139° |
| 2026-05-07 20:12 | 44.40994 | 16.56101 | 31717 ft | 477 kts | 139° |
| 2026-05-07 20:12 | 44.38745 | 16.59508 | 31201 ft | 474 kts | 138° |
| 2026-05-07 20:12 | 44.36503 | 16.62905 | 30731 ft | 470 kts | 138° |
| 2026-05-07 20:13 | 44.34315 | 16.66215 | 30277 ft | 467 kts | 138° |
| 2026-05-07 20:13 | 44.32113 | 16.69539 | 29751 ft | 464 kts | 138° |
| 2026-05-07 20:13 | 44.29920 | 16.72846 | 29227 ft | 460 kts | 138° |
| 2026-05-07 20:13 | 44.27748 | 16.76119 | 28754 ft | 455 kts | 138° |
| 2026-05-07 20:14 | 44.25622 | 16.79316 | 28255 ft | 452 kts | 138° |
| 2026-05-07 20:14 | 44.23497 | 16.82510 | 27812 ft | 446 kts | 138° |
| 2026-05-07 20:14 | 44.21389 | 16.85672 | 27330 ft | 443 kts | 138° |
| 2026-05-07 20:14 | 44.19298 | 16.88806 | 26867 ft | 439 kts | 138° |
| 2026-05-07 20:15 | 44.17214 | 16.91924 | 26411 ft | 435 kts | 138° |
| 2026-05-07 20:15 | 44.15181 | 16.94965 | 25959 ft | 432 kts | 139° |
| 2026-05-07 20:15 | 44.13138 | 16.98015 | 25513 ft | 428 kts | 138° |
| 2026-05-07 20:15 | 44.11098 | 17.01059 | 25060 ft | 426 kts | 138° |
| 2026-05-07 20:16 | 44.09094 | 17.04046 | 24629 ft | 423 kts | 138° |
| 2026-05-07 20:16 | 44.07079 | 17.07044 | 24169 ft | 421 kts | 138° |
| 2026-05-07 20:16 | 44.05103 | 17.09983 | 23714 ft | 418 kts | 138° |
| 2026-05-07 20:16 | 44.03112 | 17.12941 | 23183 ft | 415 kts | 138° |
| 2026-05-07 20:17 | 44.01160 | 17.15838 | 22709 ft | 411 kts | 138° |
| 2026-05-07 20:17 | 43.99209 | 17.18732 | 22258 ft | 407 kts | 138° |
| 2026-05-07 20:17 | 43.97276 | 17.21596 | 21801 ft | 403 kts | 138° |
| 2026-05-07 20:17 | 43.95383 | 17.24397 | 21363 ft | 400 kts | 138° |
| 2026-05-07 20:18 | 43.93479 | 17.27210 | 20921 ft | 396 kts | 137° |
| 2026-05-07 20:18 | 43.91597 | 17.29991 | 20494 ft | 393 kts | 137° |
| 2026-05-07 20:18 | 43.89727 | 17.32748 | 20062 ft | 390 kts | 137° |
| 2026-05-07 20:18 | 43.87891 | 17.35453 | 19641 ft | 388 kts | 137° |
| 2026-05-07 20:19 | 43.86047 | 17.38169 | 19218 ft | 385 kts | 137° |
| 2026-05-07 20:19 | 43.84208 | 17.40874 | 18785 ft | 383 kts | 137° |
| 2026-05-07 20:19 | 43.82382 | 17.43558 | 18362 ft | 381 kts | 137° |
| 2026-05-07 20:19 | 43.80614 | 17.46159 | 18160 ft | 366 kts | 137° |
| 2026-05-07 20:20 | 43.78901 | 17.48678 | 17952 ft | 349 kts | 137° |
| 2026-05-07 20:20 | 43.77285 | 17.51050 | 17791 ft | 333 kts | 137° |
| 2026-05-07 20:20 | 43.75717 | 17.53303 | 17662 ft | 316 kts | 143° |
| 2026-05-07 20:20 | 43.73922 | 17.54894 | 17394 ft | 301 kts | 160° |
| 2026-05-07 20:21 | 43.72027 | 17.56102 | 17093 ft | 298 kts | 160° |
| 2026-05-07 20:21 | 43.70161 | 17.57270 | 16797 ft | 297 kts | 160° |
| 2026-05-07 20:21 | 43.68280 | 17.58456 | 16483 ft | 295 kts | 160° |
| 2026-05-07 20:21 | 43.66406 | 17.59649 | 16186 ft | 295 kts | 159° |
| 2026-05-07 20:22 | 43.64568 | 17.60828 | 15876 ft | 294 kts | 159° |
| 2026-05-07 20:22 | 43.62717 | 17.62021 | 15567 ft | 292 kts | 159° |
| 2026-05-07 20:22 | 43.60894 | 17.63200 | 15287 ft | 291 kts | 159° |
| 2026-05-07 20:22 | 43.59054 | 17.64389 | 14971 ft | 290 kts | 159° |
| 2026-05-07 20:23 | 43.57222 | 17.65569 | 14672 ft | 289 kts | 160° |
| 2026-05-07 20:23 | 43.55336 | 17.66232 | 14366 ft | 281 kts | 182° |
| 2026-05-07 20:23 | 43.53397 | 17.66074 | 14112 ft | 277 kts | 189° |
| 2026-05-07 20:23 | 43.51477 | 17.65767 | 13796 ft | 276 kts | 189° |
| 2026-05-07 20:24 | 43.49590 | 17.65451 | 13511 ft | 274 kts | 189° |
| 2026-05-07 20:24 | 43.47696 | 17.65138 | 13200 ft | 273 kts | 189° |
| 2026-05-07 20:24 | 43.45803 | 17.64834 | 12922 ft | 272 kts | 189° |
| 2026-05-07 20:24 | 43.43916 | 17.64537 | 12622 ft | 271 kts | 189° |
| 2026-05-07 20:25 | 43.42039 | 17.64247 | 12341 ft | 270 kts | 189° |
| 2026-05-07 20:25 | 43.40189 | 17.63963 | 12059 ft | 269 kts | 189° |
| 2026-05-07 20:25 | 43.38332 | 17.63679 | 11753 ft | 269 kts | 189° |
| 2026-05-07 20:25 | 43.36474 | 17.63398 | 11475 ft | 267 kts | 189° |
| 2026-05-07 20:26 | 43.34641 | 17.63120 | 11182 ft | 266 kts | 189° |
| 2026-05-07 20:26 | 43.32796 | 17.62841 | 10870 ft | 266 kts | 189° |
| 2026-05-07 20:26 | 43.30971 | 17.62565 | 10683 ft | 259 kts | 188° |
| 2026-05-07 20:26 | 43.29180 | 17.62708 | 10498 ft | 260 kts | 167° |
| 2026-05-07 20:27 | 43.27498 | 17.63546 | 10292 ft | 258 kts | 163° |
| 2026-05-07 20:27 | 43.25844 | 17.64445 | 10163 ft | 252 kts | 162° |
| 2026-05-07 20:27 | 43.24233 | 17.65322 | 10038 ft | 246 kts | 163° |
| 2026-05-07 20:27 | 43.22663 | 17.66171 | 9829 ft | 246 kts | 163° |
| 2026-05-07 20:28 | 43.21065 | 17.67028 | 9567 ft | 245 kts | 163° |
| 2026-05-07 20:28 | 43.19478 | 17.67877 | 9304 ft | 244 kts | 163° |
| 2026-05-07 20:28 | 43.17894 | 17.68722 | 9055 ft | 243 kts | 163° |
| 2026-05-07 20:28 | 43.16311 | 17.69564 | 8790 ft | 242 kts | 163° |
| 2026-05-07 20:29 | 43.14756 | 17.70390 | 8535 ft | 241 kts | 162° |
| 2026-05-07 20:29 | 43.13192 | 17.71220 | 8285 ft | 240 kts | 162° |
| 2026-05-07 20:29 | 43.11633 | 17.72043 | 8024 ft | 239 kts | 164° |
| 2026-05-07 20:29 | 43.10035 | 17.72454 | 7753 ft | 235 kts | 180° |
| 2026-05-07 20:30 | 43.08398 | 17.72495 | 7484 ft | 235 kts | 182° |
| 2026-05-07 20:30 | 43.06773 | 17.72506 | 7321 ft | 230 kts | 181° |
| 2026-05-07 20:30 | 43.05189 | 17.72530 | 7141 ft | 226 kts | 181° |
| 2026-05-07 20:30 | 43.03654 | 17.72798 | 6878 ft | 228 kts | 159° |
| 2026-05-07 20:31 | 43.02406 | 17.74127 | 6654 ft | 231 kts | 128° |
| 2026-05-07 20:31 | 43.01795 | 17.76165 | 6394 ft | 235 kts | 101° |
| 2026-05-07 20:31 | 43.01730 | 17.78350 | 6206 ft | 229 kts | 92° |
| 2026-05-07 20:31 | 43.01776 | 17.80508 | 5939 ft | 224 kts | 91° |
| 2026-05-07 20:32 | 43.01828 | 17.82611 | 5691 ft | 216 kts | 90° |
| 2026-05-07 20:32 | 43.02251 | 17.84529 | 5453 ft | 211 kts | 57° |
| 2026-05-07 20:32 | 43.03340 | 17.85784 | 5283 ft | 202 kts | 24° |
| 2026-05-07 20:32 | 43.04673 | 17.86157 | 5064 ft | 190 kts | 0° |
| 2026-05-07 20:33 | 43.05937 | 17.86139 | 4904 ft | 175 kts | 358° |
| 2026-05-07 20:33 | 43.07115 | 17.86093 | 4758 ft | 170 kts | 358° |
| 2026-05-07 20:33 | 43.08262 | 17.86051 | 4539 ft | 163 kts | 359° |
| 2026-05-07 20:33 | 43.09385 | 17.86012 | 4385 ft | 160 kts | 359° |
| 2026-05-07 20:34 | 43.10514 | 17.85975 | 4122 ft | 166 kts | 359° |
| 2026-05-07 20:34 | 43.11677 | 17.85938 | 3620 ft | 163 kts | 359° |
| 2026-05-07 20:34 | 43.12745 | 17.85866 | 3385 ft | 151 kts | 354° |
| 2026-05-07 20:34 | 43.13758 | 17.85442 | 3167 ft | 154 kts | 333° |
| 2026-05-07 20:35 | 43.14622 | 17.84557 | 2950 ft | 155 kts | 313° |
| 2026-05-07 20:35 | 43.15269 | 17.83399 | 2795 ft | 154 kts | 303° |
| 2026-05-07 20:35 | 43.15986 | 17.82317 | 2658 ft | 154 kts | 324° |
| 2026-05-07 20:35 | 43.16946 | 17.81701 | 2523 ft | 153 kts | 347° |
| 2026-05-07 20:36 | 43.17997 | 17.81565 | 2302 ft | 148 kts | 5° |
| 2026-05-07 20:36 | 43.18985 | 17.81816 | 2093 ft | 141 kts | 19° |
| 2026-05-07 20:36 | 43.19851 | 17.82369 | 1889 ft | 138 kts | 33° |
| 2026-05-07 20:36 | 43.20586 | 17.83211 | 1702 ft | 140 kts | 45° |
| 2026-05-07 20:37 | 43.21253 | 17.84202 | 1522 ft | 140 kts | 47° |
| 2026-05-07 20:37 | 43.21900 | 17.85184 | 1379 ft | 140 kts | 44° |
| 2026-05-07 20:37 | 43.22696 | 17.85966 | 1218 ft | 141 kts | 26° |
| 2026-05-07 20:37 | 43.23630 | 17.86384 | 1052 ft | 142 kts | 12° |
| 2026-05-07 20:38 | 43.24585 | 17.86748 | 856 ft | 142 kts | 12° |
| 2026-05-07 20:38 | 43.25518 | 17.86453 | 637 ft | 144 kts | 327° |
| 2026-05-07 20:38 | 43.26331 | 17.85728 | 478 ft | 132 kts | 333° |
| 2026-05-07 20:38 | 43.27168 | 17.85207 | 251 ft | 131 kts | 339° |
| 2026-05-07 20:39 | 43.27972 | 17.84776 | 172 ft | 111 kts | 335° |
| 2026-05-07 20:39 | 43.28511 | 17.84464 | 175 ft | 59 kts | 337° |
| 2026-05-07 20:39 | 43.28805 | 17.84296 | 176 ft | 34 kts | 338° |
| 2026-05-07 20:39 | 43.28952 | 17.84211 | 178 ft | 17 kts | 337° |
| 2026-05-07 20:40 | 43.29058 | 17.84156 | 180 ft | 16 kts | 338° |
| 2026-05-07 20:40 | 43.29176 | 17.84091 | 181 ft | 20 kts | 338° |
| 2026-05-07 20:40 | 43.29271 | 17.83998 | 181 ft | 15 kts | 279° |
| 2026-05-07 20:40 | 43.29243 | 17.83869 | 180 ft | 14 kts | 248° |
| 2026-05-07 20:41 | 43.29197 | 17.83765 | 179 ft | 13 kts | 202° |
| 2026-05-07 20:41 | 43.29115 | 17.83798 | 178 ft | 12 kts | 158° |
| 2026-05-07 20:41 | 43.29079 | 17.83817 | 178 ft | 0 kts | 159° |
| 2026-05-07 20:42 | 43.29076 | 17.83815 | 178 ft | 1 kts | 193° |
| 2026-05-07 20:42 | 43.29066 | 17.83791 | 178 ft | 5 kts | 241° |
| 2026-05-07 20:42 | 43.29036 | 17.83765 | 178 ft | 6 kts | 190° |
| 2026-05-07 20:42 | 43.29011 | 17.83725 | 178 ft | 5 kts | 248° |
| 2026-05-07 20:43 | 43.29019 | 17.83710 | 178 ft | 1 kts | 358° |
| 2026-05-07 20:43 | 43.29024 | 17.83716 | 178 ft | 0 kts | 34° |